CMA CGM Musca — 2CAC8 — position and weather

sailwx.info

Track history (hours):
 
Tides and Currents Weather Stations Pressure Air Temp Water Temp Dewpoint Dewpoint Depression Visibility Wind Speed Wind Dir Waves Ship Positions

CMA CGM Musca

Last reported at 2017-Dec-01 16:28 UTC. Time now 2017-Dec-11 02:24 UTC.
Position N 01°17' E 103°20'.
Warning: this ship's position is 9 days out of date.

Length 347 m; draft 13.7 m.

Type: Ship (hazmat cat A). MMSI: 235070914.

Date/timePositionNaut miles runAvg speedWind from/ knotsBaromVisibWave heightAir tempDewpointWater temp
2017-Dec-01 16:28N 01°17' E 103°20'918.9
2017-Dec-01 16:00N 01°13' E 103°28'917.4
2017-Dec-01 15:31N 01°12' E 103°37'4 8.6
2017-Dec-01 15:00N 01°13' E 103°41'611.3
2017-Dec-01 14:30N 01°16' E 103°45'2 3.8
2017-Dec-01 14:00N 01°15' E 103°47'0 0.1
2017-Dec-01 13:20N 01°15' E 103°47'0 0.0
2017-Dec-01 12:56N 01°15' E 103°47'0 0.0
2017-Dec-01 12:25N 01°15' E 103°47'0 0.0
2017-Dec-01 11:37N 01°15' E 103°47'0 0.0
2017-Dec-01 11:25N 01°15' E 103°47'0 0.0
2017-Dec-01 10:55N 01°15' E 103°47'0 0.0
2017-Dec-01 10:30N 01°15' E 103°47'0 0.0
2017-Dec-01 10:00N 01°15' E 103°47'0 0.0
2017-Dec-01 09:24N 01°15' E 103°47'0 0.0
2017-Dec-01 08:54N 01°15' E 103°47'0 0.0
2017-Dec-01 08:18N 01°15' E 103°47'0 0.0
2017-Dec-01 07:59N 01°15' E 103°47'0 0.0
2017-Dec-01 07:29N 01°15' E 103°47'0 0.0
2017-Dec-01 06:59N 01°15' E 103°47'0 0.0
2017-Dec-01 06:29N 01°15' E 103°47'0 0.0
2017-Dec-01 05:53N 01°15' E 103°47'0 0.0
2017-Dec-01 05:28N 01°15' E 103°47'0 0.0
2017-Dec-01 04:58N 01°15' E 103°47'0 0.0
2017-Dec-01 04:22N 01°15' E 103°47'0 0.0
2017-Dec-01 03:58N 01°15' E 103°47'0 0.0
2017-Dec-01 03:27N 01°15' E 103°47'0 0.0
2017-Dec-01 02:51N 01°15' E 103°47'0 0.0
2017-Dec-01 02:27N 01°15' E 103°47'0 0.0
2017-Dec-01 01:51N 01°15' E 103°47'0 0.0
2017-Dec-01 01:21N 01°15' E 103°47'0 0.0
2017-Dec-01 00:56N 01°15' E 103°47'0 0.0
2017-Nov-30 23:56N 01°15' E 103°47'0 0.0
2017-Nov-30 23:26N 01°15' E 103°47'0 0.0
2017-Nov-30 22:55N 01°15' E 103°47'0 0.0
2017-Nov-30 22:28N 01°15' E 103°47'0 0.0
2017-Nov-30 21:55N 01°15' E 103°47'0 0.0
2017-Nov-30 21:25N 01°15' E 103°47'0 0.0
2017-Nov-30 20:57N 01°15' E 103°47'1 2.3
2017-Nov-30 20:30N 01°14' E 103°47'4 8.9
2017-Nov-30 20:00N 01°12' E 103°51'3 5.0
2017-Nov-30 19:26N 01°14' E 103°53'0 0.1
2017-Nov-30 18:56N 01°14' E 103°53'0 0.1
2017-Nov-30 18:26N 01°14' E 103°53'0 0.0
2017-Nov-30 17:50N 01°14' E 103°53'0 0.1
2017-Nov-30 17:26N 01°14' E 103°53'1 2.3
2017-Nov-30 16:59N 01°14' E 103°54'3 5.9
2017-Nov-30 16:29N 01°15' E 103°57'610.1
2017-Nov-30 15:53N 01°16' E 104°03'  
Track history (hours):
 
Tides and Currents Weather Stations Pressure Air Temp Water Temp Dewpoint Dewpoint Depression Visibility Wind Speed Wind Dir Waves Ship Positions

CMA CGM Musca

Last reported at 2017-Dec-01 16:28 UTC. Time now 2017-Dec-11 02:24 UTC.
Position N 01°17' E 103°20'.
Warning: this ship's position is 9 days out of date.

Length 347 m; draft 13.7 m.

Type: Ship (hazmat cat A). MMSI: 235070914.

Date/timePositionNaut miles runAvg speedWind from/ knotsBaromVisibWave heightAir tempDewpointWater temp
2017-Dec-01 16:28N 01°17' E 103°20'918.9
2017-Dec-01 16:00N 01°13' E 103°28'917.4
2017-Dec-01 15:31N 01°12' E 103°37'4 8.6
2017-Dec-01 15:00N 01°13' E 103°41'611.3
2017-Dec-01 14:30N 01°16' E 103°45'2 3.8
2017-Dec-01 14:00N 01°15' E 103°47'0 0.1
2017-Dec-01 13:20N 01°15' E 103°47'0 0.0
2017-Dec-01 12:56N 01°15' E 103°47'0 0.0
2017-Dec-01 12:25N 01°15' E 103°47'0 0.0
2017-Dec-01 11:37N 01°15' E 103°47'0 0.0
2017-Dec-01 11:25N 01°15' E 103°47'0 0.0
2017-Dec-01 10:55N 01°15' E 103°47'0 0.0
2017-Dec-01 10:30N 01°15' E 103°47'0 0.0
2017-Dec-01 10:00N 01°15' E 103°47'0 0.0
2017-Dec-01 09:24N 01°15' E 103°47'0 0.0
2017-Dec-01 08:54N 01°15' E 103°47'0 0.0
2017-Dec-01 08:18N 01°15' E 103°47'0 0.0
2017-Dec-01 07:59N 01°15' E 103°47'0 0.0
2017-Dec-01 07:29N 01°15' E 103°47'0 0.0
2017-Dec-01 06:59N 01°15' E 103°47'0 0.0
2017-Dec-01 06:29N 01°15' E 103°47'0 0.0
2017-Dec-01 05:53N 01°15' E 103°47'0 0.0
2017-Dec-01 05:28N 01°15' E 103°47'0 0.0
2017-Dec-01 04:58N 01°15' E 103°47'0 0.0
2017-Dec-01 04:22N 01°15' E 103°47'0 0.0
2017-Dec-01 03:58N 01°15' E 103°47'0 0.0
2017-Dec-01 03:27N 01°15' E 103°47'0 0.0
2017-Dec-01 02:51N 01°15' E 103°47'0 0.0
2017-Dec-01 02:27N 01°15' E 103°47'0 0.0
2017-Dec-01 01:51N 01°15' E 103°47'0 0.0
2017-Dec-01 01:21N 01°15' E 103°47'0 0.0
2017-Dec-01 00:56N 01°15' E 103°47'0 0.0
2017-Nov-30 23:56N 01°15' E 103°47'0 0.0
2017-Nov-30 23:26N 01°15' E 103°47'0 0.0
2017-Nov-30 22:55N 01°15' E 103°47'0 0.0
2017-Nov-30 22:28N 01°15' E 103°47'0 0.0
2017-Nov-30 21:55N 01°15' E 103°47'0 0.0
2017-Nov-30 21:25N 01°15' E 103°47'0 0.0
2017-Nov-30 20:57N 01°15' E 103°47'1 2.3
2017-Nov-30 20:30N 01°14' E 103°47'4 8.9
2017-Nov-30 20:00N 01°12' E 103°51'3 5.0
2017-Nov-30 19:26N 01°14' E 103°53'0 0.1
2017-Nov-30 18:56N 01°14' E 103°53'0 0.1
2017-Nov-30 18:26N 01°14' E 103°53'0 0.0
2017-Nov-30 17:50N 01°14' E 103°53'0 0.1
2017-Nov-30 17:26N 01°14' E 103°53'1 2.3
2017-Nov-30 16:59N 01°14' E 103°54'3 5.9
2017-Nov-30 16:29N 01°15' E 103°57'610.1
2017-Nov-30 15:53N 01°16' E 104°03'  

Dump ship's entire track history